Check out our new PWSWeather beta!
PWSweather.com
Personal Weather Stations
Station Observations
KVAGLENALL
West Henrico, Glen Allen, VA 23060-6503

West HenricoGlen Allen, VA 23060-6503

Lat: 37.6554, Lon: -77.5693

Elevation: 273

Station Type: Davis Vantage Pro II

www.glenallenweather.com

High Low Average
Temperature 77.9°F25.5°C 51.5°F10.8°C 63.2°F17.3°C
Dew Point 64.9°F18.3°C 50.4°F10.2°C 58.5°F14.7°C
Winds 21.0 mph 33.8 kmh Calm Calm 5.0 mph SSW8.0 kmh SSW
Wind Gusts 21.2 mph34.1 kmh 2.0 mph3.2 kmh 9.0 mph14.5 kmh
Humidity 99% 60% 86%
Pressure 30.46 in1031.5 mb 30.33 in1027.1 mb -
Precipitation 0.00 in0.0 mm - -
Hour Temp Dew Point Humidity Winds Wind Gusts Pressure Precip Precip Rate Daily Precip Total
12:00 AM 51.5°F10.8°C 50.4°F10.2°C 96% 1.0 mph SSW1.6 kmh SSW 5.1 mph8.2 kmh 30.39 in1029.1 mb 0.00 in0.0 mm 0.00 in0.0 mm 0.00 in0.0 mm
12:15 AM 51.8°F11.0°C 50.7°F10.4°C 96% 1.0 mph SSW1.6 kmh SSW 7.1 mph11.4 kmh 30.39 in1029.1 mb 0.00 in0.0 mm 0.00 in0.0 mm 0.00 in0.0 mm
12:30 AM 52.1°F11.2°C 51.2°F10.7°C 97% 8.0 mph SSW12.9 kmh SSW 9.1 mph14.6 kmh 30.39 in1029.1 mb 0.00 in0.0 mm 0.00 in0.0 mm 0.00 in0.0 mm
12:45 AM 52.3°F11.3°C 51.4°F10.8°C 97% 4.0 mph SW6.4 kmh SW 10.1 mph16.3 kmh 30.39 in1029.1 mb 0.00 in0.0 mm 0.00 in0.0 mm 0.00 in0.0 mm
01:00 AM 52.6°F11.4°C 52.0°F11.1°C 98% 4.0 mph SW6.4 kmh SW 11.1 mph17.9 kmh 30.39 in1029.1 mb 0.00 in0.0 mm 0.00 in0.0 mm 0.00 in0.0 mm
01:15 AM 52.9°F11.6°C 52.3°F11.3°C 98% 6.0 mph SSW9.7 kmh SSW 6.1 mph9.8 kmh 30.39 in1029.1 mb 0.00 in0.0 mm 0.00 in0.0 mm 0.00 in0.0 mm
01:30 AM 52.9°F11.6°C 52.3°F11.3°C 98% 6.0 mph SSW9.7 kmh SSW 7.1 mph11.4 kmh 30.39 in1029.1 mb 0.00 in0.0 mm 0.00 in0.0 mm 0.00 in0.0 mm
01:45 AM 52.8°F11.6°C 52.2°F11.2°C 98% 7.0 mph SW11.3 kmh SW 14.1 mph22.7 kmh 30.39 in1029.1 mb 0.00 in0.0 mm 0.00 in0.0 mm 0.00 in0.0 mm
02:00 AM 52.7°F11.5°C 52.1°F11.2°C 98% 4.0 mph SSW6.4 kmh SSW 8.1 mph13.0 kmh 30.39 in1029.1 mb 0.00 in0.0 mm 0.00 in0.0 mm 0.00 in0.0 mm
02:15 AM 52.8°F11.6°C 52.2°F11.2°C 98% 7.0 mph SSW11.3 kmh SSW 10.1 mph16.3 kmh 30.38 in1028.8 mb 0.00 in0.0 mm 0.00 in0.0 mm 0.00 in0.0 mm
02:30 AM 53.0°F11.7°C 52.4°F11.3°C 98% 6.0 mph SW9.7 kmh SW 6.1 mph9.8 kmh 30.38 in1028.8 mb 0.00 in0.0 mm 0.00 in0.0 mm 0.00 in0.0 mm
02:45 AM 53.4°F11.9°C 52.8°F11.6°C 98% 1.0 mph SW1.6 kmh SW 5.1 mph8.2 kmh 30.38 in1028.8 mb 0.00 in0.0 mm 0.00 in0.0 mm 0.00 in0.0 mm
03:00 AM 53.5°F11.9°C 52.9°F11.6°C 98% 4.0 mph SW6.4 kmh SW 5.1 mph8.2 kmh 30.38 in1028.8 mb 0.00 in0.0 mm 0.00 in0.0 mm 0.00 in0.0 mm
03:15 AM 53.4°F11.9°C 52.8°F11.6°C 98% 5.0 mph SSW8.0 kmh SSW 8.1 mph13.0 kmh 30.38 in1028.8 mb 0.00 in0.0 mm 0.00 in0.0 mm 0.00 in0.0 mm
03:30 AM 53.4°F11.9°C 52.8°F11.6°C 98% Calm Calm 3.0 mph4.8 kmh 30.37 in1028.4 mb 0.00 in0.0 mm 0.00 in0.0 mm 0.00 in0.0 mm
03:45 AM 53.7°F12.1°C 53.1°F11.7°C 98% 2.0 mph SW3.2 kmh SW 11.1 mph17.9 kmh 30.38 in1028.8 mb 0.00 in0.0 mm 0.00 in0.0 mm 0.00 in0.0 mm
04:00 AM 53.7°F12.1°C 53.1°F11.7°C 98% 5.0 mph SW8.0 kmh SW 7.1 mph11.4 kmh 30.38 in1028.8 mb 0.00 in0.0 mm 0.00 in0.0 mm 0.00 in0.0 mm
04:15 AM 53.6°F12.0°C 52.7°F11.5°C 97% 5.0 mph S8.0 kmh S 7.1 mph11.4 kmh 30.38 in1028.8 mb 0.00 in0.0 mm 0.00 in0.0 mm 0.00 in0.0 mm
04:30 AM 53.7°F12.1°C 53.1°F11.7°C 98% 1.0 mph W1.6 kmh W 5.1 mph8.2 kmh 30.38 in1028.8 mb 0.00 in0.0 mm 0.00 in0.0 mm 0.00 in0.0 mm
04:45 AM 53.5°F11.9°C 52.6°F11.4°C 97% Calm Calm 2.0 mph3.2 kmh 30.38 in1028.8 mb 0.00 in0.0 mm 0.00 in0.0 mm 0.00 in0.0 mm
05:00 AM 53.5°F11.9°C 52.9°F11.6°C 98% 2.0 mph SW3.2 kmh SW 6.1 mph9.8 kmh 30.39 in1029.1 mb 0.00 in0.0 mm 0.00 in0.0 mm 0.00 in0.0 mm
05:15 AM 53.6°F12.0°C 53.0°F11.7°C 98% 4.0 mph SW6.4 kmh SW 5.1 mph8.2 kmh 30.39 in1029.1 mb 0.00 in0.0 mm 0.00 in0.0 mm 0.00 in0.0 mm
05:30 AM 53.7°F12.1°C 53.1°F11.7°C 98% 8.0 mph SSW12.9 kmh SSW 8.1 mph13.0 kmh 30.39 in1029.1 mb 0.00 in0.0 mm 0.00 in0.0 mm 0.00 in0.0 mm
05:45 AM 53.8°F12.1°C 53.2°F11.8°C 98% 4.0 mph SSW6.4 kmh SSW 4.0 mph6.4 kmh 30.40 in1029.5 mb 0.00 in0.0 mm 0.00 in0.0 mm 0.00 in0.0 mm
06:00 AM 53.8°F12.1°C 53.2°F11.8°C 98% 2.0 mph WSW3.2 kmh WSW 4.0 mph6.4 kmh 30.40 in1029.5 mb 0.00 in0.0 mm 0.00 in0.0 mm 0.00 in0.0 mm
06:15 AM 53.9°F12.2°C 53.3°F11.8°C 98% 2.0 mph S3.2 kmh S 3.0 mph4.8 kmh 30.41 in1029.8 mb 0.00 in0.0 mm 0.00 in0.0 mm 0.00 in0.0 mm
06:30 AM 53.9°F12.2°C 53.3°F11.8°C 98% 3.0 mph SW4.8 kmh SW 3.0 mph4.8 kmh 30.42 in1030.1 mb 0.00 in0.0 mm 0.00 in0.0 mm 0.00 in0.0 mm
06:45 AM 53.9°F12.2°C 53.3°F11.8°C 98% 1.0 mph SSW1.6 kmh SSW 3.0 mph4.8 kmh 30.42 in1030.1 mb 0.00 in0.0 mm 0.00 in0.0 mm 0.00 in0.0 mm
07:00 AM 54.0°F12.2°C 53.4°F11.9°C 98% 2.0 mph S3.2 kmh S 5.1 mph8.2 kmh 30.42 in1030.1 mb 0.00 in0.0 mm 0.00 in0.0 mm 0.00 in0.0 mm
07:15 AM 54.0°F12.2°C 53.7°F12.1°C 99% 1.0 mph S1.6 kmh S 2.0 mph3.2 kmh 30.43 in1030.5 mb 0.00 in0.0 mm 0.00 in0.0 mm 0.00 in0.0 mm
07:30 AM 54.2°F12.3°C 53.6°F12.0°C 98% 1.0 mph SW1.6 kmh SW 3.0 mph4.8 kmh 30.43 in1030.5 mb 0.00 in0.0 mm 0.00 in0.0 mm 0.00 in0.0 mm
07:45 AM 54.4°F12.4°C 53.8°F12.1°C 98% 2.0 mph SW3.2 kmh SW 3.0 mph4.8 kmh 30.44 in1030.8 mb 0.00 in0.0 mm 0.00 in0.0 mm 0.00 in0.0 mm
08:00 AM 54.5°F12.5°C 53.9°F12.2°C 98% 2.0 mph SSW3.2 kmh SSW 2.0 mph3.2 kmh 30.44 in1030.8 mb 0.00 in0.0 mm 0.00 in0.0 mm 0.00 in0.0 mm
08:15 AM 54.8°F12.7°C 54.2°F12.3°C 98% 2.0 mph SE3.2 kmh SE 5.1 mph8.2 kmh 30.45 in1031.2 mb 0.00 in0.0 mm 0.00 in0.0 mm 0.00 in0.0 mm
08:30 AM 55.0°F12.8°C 54.4°F12.4°C 98% 4.0 mph SSW6.4 kmh SSW 6.1 mph9.8 kmh 30.45 in1031.2 mb 0.00 in0.0 mm 0.00 in0.0 mm 0.00 in0.0 mm
08:45 AM 55.4°F13.0°C 54.8°F12.7°C 98% 2.0 mph SSW3.2 kmh SSW 5.1 mph8.2 kmh 30.45 in1031.2 mb 0.00 in0.0 mm 0.00 in0.0 mm 0.00 in0.0 mm
09:00 AM 55.8°F13.2°C 55.2°F12.9°C 98% Calm Calm 5.1 mph8.2 kmh 30.46 in1031.5 mb 0.00 in0.0 mm 0.00 in0.0 mm 0.00 in0.0 mm
09:15 AM 56.2°F13.4°C 55.6°F13.1°C 98% 4.0 mph SW6.4 kmh SW 7.1 mph11.4 kmh 30.46 in1031.5 mb 0.00 in0.0 mm 0.00 in0.0 mm 0.00 in0.0 mm
09:30 AM 56.9°F13.8°C 56.0°F13.3°C 97% 2.0 mph S3.2 kmh S 9.1 mph14.6 kmh 30.45 in1031.2 mb 0.00 in0.0 mm 0.00 in0.0 mm 0.00 in0.0 mm
09:45 AM 57.4°F14.1°C 56.5°F13.6°C 97% 4.0 mph SW6.4 kmh SW 4.0 mph6.4 kmh 30.45 in1031.2 mb 0.00 in0.0 mm 0.00 in0.0 mm 0.00 in0.0 mm
10:00 AM 58.5°F14.7°C 57.4°F14.1°C 96% 5.0 mph SSW8.0 kmh SSW 11.1 mph17.9 kmh 30.45 in1031.2 mb 0.00 in0.0 mm 0.00 in0.0 mm 0.00 in0.0 mm
10:15 AM 60.0°F15.6°C 58.3°F14.6°C 94% 8.0 mph SSW12.9 kmh SSW 11.1 mph17.9 kmh 30.45 in1031.2 mb 0.00 in0.0 mm 0.00 in0.0 mm 0.00 in0.0 mm
10:30 AM 62.4°F16.9°C 60.1°F15.6°C 92% 2.0 mph SSW3.2 kmh SSW 8.1 mph13.0 kmh 30.44 in1030.8 mb 0.00 in0.0 mm 0.00 in0.0 mm 0.00 in0.0 mm
10:45 AM 64.3°F17.9°C 61.0°F16.1°C 89% 2.0 mph SW3.2 kmh SW 6.1 mph9.8 kmh 30.44 in1030.8 mb 0.00 in0.0 mm 0.00 in0.0 mm 0.00 in0.0 mm
11:00 AM 66.5°F19.2°C 61.9°F16.6°C 85% 5.0 mph SSW8.0 kmh SSW 7.1 mph11.4 kmh 30.44 in1030.8 mb 0.00 in0.0 mm 0.00 in0.0 mm 0.00 in0.0 mm
11:15 AM 67.9°F19.9°C 62.9°F17.2°C 84% 5.0 mph WSW8.0 kmh WSW 8.1 mph13.0 kmh 30.43 in1030.5 mb 0.00 in0.0 mm 0.00 in0.0 mm 0.00 in0.0 mm
11:30 AM 69.9°F21.1°C 63.8°F17.7°C 81% 5.0 mph WSW8.0 kmh WSW 9.1 mph14.6 kmh 30.42 in1030.1 mb 0.00 in0.0 mm 0.00 in0.0 mm 0.00 in0.0 mm
11:45 AM 71.6°F22.0°C 64.3°F17.9°C 78% 5.0 mph SSW8.0 kmh SSW 7.1 mph11.4 kmh 30.42 in1030.1 mb 0.00 in0.0 mm 0.00 in0.0 mm 0.00 in0.0 mm
12:00 PM 72.8°F22.7°C 64.8°F18.2°C 76% 5.0 mph SW8.0 kmh SW 5.1 mph8.2 kmh 30.41 in1029.8 mb 0.00 in0.0 mm 0.00 in0.0 mm 0.00 in0.0 mm
12:15 PM 74.5°F23.6°C 64.9°F18.3°C 72% 4.0 mph WSW6.4 kmh WSW 7.1 mph11.4 kmh 30.40 in1029.5 mb 0.00 in0.0 mm 0.00 in0.0 mm 0.00 in0.0 mm
12:30 PM 75.8°F24.3°C 64.5°F18.1°C 68% 11.0 mph SW17.7 kmh SW 14.1 mph22.7 kmh 30.39 in1029.1 mb 0.00 in0.0 mm 0.00 in0.0 mm 0.00 in0.0 mm
12:45 PM 76.9°F24.9°C 64.7°F18.2°C 66% 11.0 mph SW17.7 kmh SW 13.1 mph21.1 kmh 30.38 in1028.8 mb 0.00 in0.0 mm 0.00 in0.0 mm 0.00 in0.0 mm
01:00 PM 77.1°F25.1°C 63.5°F17.5°C 63% 14.0 mph SW22.5 kmh SW 17.2 mph27.7 kmh 30.37 in1028.4 mb 0.00 in0.0 mm 0.00 in0.0 mm 0.00 in0.0 mm
01:15 PM 77.3°F25.2°C 63.3°F17.4°C 62% 5.0 mph S8.0 kmh S 13.1 mph21.1 kmh 30.36 in1028.1 mb 0.00 in0.0 mm 0.00 in0.0 mm 0.00 in0.0 mm
01:30 PM 77.5°F25.3°C 63.0°F17.2°C 61% 15.0 mph SW24.1 kmh SW 16.2 mph26.1 kmh 30.36 in1028.1 mb 0.00 in0.0 mm 0.00 in0.0 mm 0.00 in0.0 mm
01:45 PM 76.6°F24.8°C 62.6°F17.0°C 62% 3.0 mph SW4.8 kmh SW 9.1 mph14.6 kmh 30.35 in1027.8 mb 0.00 in0.0 mm 0.00 in0.0 mm 0.00 in0.0 mm
02:00 PM 77.4°F25.2°C 63.4°F17.4°C 62% 7.0 mph SW11.3 kmh SW 10.1 mph16.3 kmh 30.35 in1027.8 mb 0.00 in0.0 mm 0.00 in0.0 mm 0.00 in0.0 mm
02:15 PM 77.6°F25.3°C 63.6°F17.6°C 62% 21.0 mph SSW33.8 kmh SSW 21.2 mph34.1 kmh 30.34 in1027.4 mb 0.00 in0.0 mm 0.00 in0.0 mm 0.00 in0.0 mm
02:30 PM 77.0°F25.0°C 63.4°F17.4°C 63% 8.0 mph SW12.9 kmh SW 10.1 mph16.3 kmh 30.33 in1027.1 mb 0.00 in0.0 mm 0.00 in0.0 mm 0.00 in0.0 mm
02:45 PM 77.9°F25.5°C 62.9°F17.2°C 60% 19.0 mph S30.6 kmh S 19.2 mph30.9 kmh 30.34 in1027.4 mb 0.00 in0.0 mm 0.00 in0.0 mm 0.00 in0.0 mm
03:00 PM 76.6°F24.8°C 62.6°F17.0°C 62% 13.0 mph S20.9 kmh S 19.2 mph30.9 kmh 30.33 in1027.1 mb 0.00 in0.0 mm 0.00 in0.0 mm 0.00 in0.0 mm
03:15 PM 77.1°F25.1°C 62.6°F17.0°C 61% 14.0 mph SSW22.5 kmh SSW 19.2 mph30.9 kmh 30.34 in1027.4 mb 0.00 in0.0 mm 0.00 in0.0 mm 0.00 in0.0 mm
03:30 PM 76.8°F24.9°C 62.8°F17.1°C 62% 5.0 mph SW8.0 kmh SW 17.2 mph27.7 kmh 30.34 in1027.4 mb 0.00 in0.0 mm 0.00 in0.0 mm 0.00 in0.0 mm
03:45 PM 76.3°F24.6°C 62.8°F17.1°C 63% 7.0 mph S11.3 kmh S 10.1 mph16.3 kmh 30.33 in1027.1 mb 0.00 in0.0 mm 0.00 in0.0 mm 0.00 in0.0 mm
04:00 PM 75.9°F24.4°C 62.4°F16.9°C 63% 10.0 mph SSW16.1 kmh SSW 11.1 mph17.9 kmh 30.34 in1027.4 mb 0.00 in0.0 mm 0.00 in0.0 mm 0.00 in0.0 mm
04:15 PM 75.1°F23.9°C 62.1°F16.7°C 64% 10.0 mph SW16.1 kmh SW 20.2 mph32.5 kmh 30.34 in1027.4 mb 0.00 in0.0 mm 0.00 in0.0 mm 0.00 in0.0 mm
04:30 PM 73.9°F23.3°C 62.2°F16.8°C 67% 8.0 mph SW12.9 kmh SW 21.2 mph34.1 kmh 30.34 in1027.4 mb 0.00 in0.0 mm 0.00 in0.0 mm 0.00 in0.0 mm
04:45 PM 73.8°F23.2°C 62.6°F17.0°C 68% 7.0 mph S11.3 kmh S 15.1 mph24.3 kmh 30.34 in1027.4 mb 0.00 in0.0 mm 0.00 in0.0 mm 0.00 in0.0 mm
05:00 PM 73.4°F23.0°C 61.8°F16.6°C 67% 15.0 mph SW24.1 kmh SW 17.2 mph27.7 kmh 30.35 in1027.8 mb 0.00 in0.0 mm 0.00 in0.0 mm 0.00 in0.0 mm
05:15 PM 72.5°F22.5°C 61.7°F16.5°C 69% 10.0 mph S16.1 kmh S 14.1 mph22.7 kmh 30.35 in1027.8 mb 0.00 in0.0 mm 0.00 in0.0 mm 0.00 in0.0 mm
05:30 PM 71.9°F22.2°C 61.6°F16.4°C 70% 10.0 mph SSW16.1 kmh SSW 13.1 mph21.1 kmh 30.36 in1028.1 mb 0.00 in0.0 mm 0.00 in0.0 mm 0.00 in0.0 mm
05:45 PM 71.3°F21.8°C 61.8°F16.6°C 72% 5.0 mph SSW8.0 kmh SSW 14.1 mph22.7 kmh 30.36 in1028.1 mb 0.00 in0.0 mm 0.00 in0.0 mm 0.00 in0.0 mm
06:00 PM 70.8°F21.6°C 62.1°F16.7°C 74% 8.0 mph SSW12.9 kmh SSW 13.1 mph21.1 kmh 30.36 in1028.1 mb 0.00 in0.0 mm 0.00 in0.0 mm 0.00 in0.0 mm
06:15 PM 70.0°F21.1°C 62.4°F16.9°C 77% 6.0 mph SSW9.7 kmh SSW 9.1 mph14.6 kmh 30.37 in1028.4 mb 0.00 in0.0 mm 0.00 in0.0 mm 0.00 in0.0 mm
06:30 PM 69.6°F20.9°C 62.4°F16.9°C 78% 6.0 mph SW9.7 kmh SW 6.1 mph9.8 kmh 30.37 in1028.4 mb 0.00 in0.0 mm 0.00 in0.0 mm 0.00 in0.0 mm
06:45 PM 68.9°F20.5°C 62.5°F16.9°C 80% 4.0 mph S6.4 kmh S 8.1 mph13.0 kmh 30.38 in1028.8 mb 0.00 in0.0 mm 0.00 in0.0 mm 0.00 in0.0 mm
07:00 PM 68.3°F20.2°C 62.6°F17.0°C 82% 6.0 mph SW9.7 kmh SW 9.1 mph14.6 kmh 30.38 in1028.8 mb 0.00 in0.0 mm 0.00 in0.0 mm 0.00 in0.0 mm
07:15 PM 67.9°F19.9°C 62.6°F17.0°C 83% 5.0 mph SSW8.0 kmh SSW 5.1 mph8.2 kmh 30.38 in1028.8 mb 0.00 in0.0 mm 0.00 in0.0 mm 0.00 in0.0 mm
07:30 PM 67.2°F19.6°C 62.2°F16.8°C 84% 5.0 mph S8.0 kmh S 6.1 mph9.8 kmh 30.38 in1028.8 mb 0.00 in0.0 mm 0.00 in0.0 mm 0.00 in0.0 mm
07:45 PM 66.8°F19.3°C 62.5°F16.9°C 86% 4.0 mph SSW6.4 kmh SSW 7.1 mph11.4 kmh 30.38 in1028.8 mb 0.00 in0.0 mm 0.00 in0.0 mm 0.00 in0.0 mm
08:00 PM 66.5°F19.2°C 62.6°F17.0°C 87% 2.0 mph SSW3.2 kmh SSW 6.1 mph9.8 kmh 30.38 in1028.8 mb 0.00 in0.0 mm 0.00 in0.0 mm 0.00 in0.0 mm
08:15 PM 66.0°F18.9°C 62.4°F16.9°C 88% 7.0 mph S11.3 kmh S 7.1 mph11.4 kmh 30.39 in1029.1 mb 0.00 in0.0 mm 0.00 in0.0 mm 0.00 in0.0 mm
08:30 PM 65.9°F18.8°C 62.6°F17.0°C 89% 4.0 mph SW6.4 kmh SW 11.1 mph17.9 kmh 30.39 in1029.1 mb 0.00 in0.0 mm 0.00 in0.0 mm 0.00 in0.0 mm
08:45 PM 65.7°F18.7°C 62.4°F16.9°C 89% 5.0 mph SSW8.0 kmh SSW 6.1 mph9.8 kmh 30.39 in1029.1 mb 0.00 in0.0 mm 0.00 in0.0 mm 0.00 in0.0 mm
09:00 PM 65.1°F18.4°C 62.1°F16.7°C 90% 5.0 mph SW8.0 kmh SW 6.1 mph9.8 kmh 30.39 in1029.1 mb 0.00 in0.0 mm 0.00 in0.0 mm 0.00 in0.0 mm
09:15 PM 65.0°F18.3°C 62.0°F16.7°C 90% 4.0 mph SSW6.4 kmh SSW 8.1 mph13.0 kmh 30.39 in1029.1 mb 0.00 in0.0 mm 0.00 in0.0 mm 0.00 in0.0 mm
09:30 PM 64.8°F18.2°C 61.8°F16.6°C 90% 7.0 mph SSW11.3 kmh SSW 7.1 mph11.4 kmh 30.40 in1029.5 mb 0.00 in0.0 mm 0.00 in0.0 mm 0.00 in0.0 mm
09:45 PM 64.6°F18.1°C 61.9°F16.6°C 91% 3.0 mph SW4.8 kmh SW 7.1 mph11.4 kmh 30.40 in1029.5 mb 0.00 in0.0 mm 0.00 in0.0 mm 0.00 in0.0 mm
10:00 PM 64.3°F17.9°C 61.6°F16.4°C 91% 3.0 mph S4.8 kmh S 6.1 mph9.8 kmh 30.39 in1029.1 mb 0.00 in0.0 mm 0.00 in0.0 mm 0.00 in0.0 mm
10:15 PM 64.1°F17.8°C 61.4°F16.3°C 91% 6.0 mph S9.7 kmh S 6.1 mph9.8 kmh 30.39 in1029.1 mb 0.00 in0.0 mm 0.00 in0.0 mm 0.00 in0.0 mm
10:30 PM 64.1°F17.8°C 61.8°F16.6°C 92% 5.0 mph S8.0 kmh S 11.1 mph17.9 kmh 30.39 in1029.1 mb 0.00 in0.0 mm 0.00 in0.0 mm 0.00 in0.0 mm
10:45 PM 63.8°F17.7°C 61.5°F16.4°C 92% 2.0 mph SW3.2 kmh SW 6.1 mph9.8 kmh 30.39 in1029.1 mb 0.00 in0.0 mm 0.00 in0.0 mm 0.00 in0.0 mm
11:00 PM 63.7°F17.6°C 61.7°F16.5°C 93% 5.0 mph S8.0 kmh S 9.1 mph14.6 kmh 30.39 in1029.1 mb 0.00 in0.0 mm 0.00 in0.0 mm 0.00 in0.0 mm
11:15 PM 63.4°F17.4°C 61.4°F16.3°C 93% 6.0 mph SSW9.7 kmh SSW 6.1 mph9.8 kmh 30.39 in1029.1 mb 0.00 in0.0 mm 0.00 in0.0 mm 0.00 in0.0 mm
11:30 PM 63.3°F17.4°C 61.6°F16.4°C 94% 4.0 mph S6.4 kmh S 7.1 mph11.4 kmh 30.40 in1029.5 mb 0.00 in0.0 mm 0.00 in0.0 mm 0.00 in0.0 mm
11:45 PM 63.1°F17.3°C 61.4°F16.3°C 94% 4.0 mph SSW6.4 kmh SSW 5.1 mph8.2 kmh 30.40 in1029.5 mb 0.00 in0.0 mm 0.00 in0.0 mm 0.00 in0.0 mm